createdAt,value
2023-05-07T00:01:45.990Z,100.00
2023-05-07T00:04:12.786Z,100.00
2023-05-07T00:06:40.725Z,100.00
2023-05-07T00:09:08.049Z,100.00
2023-05-07T00:11:37.176Z,100.00
2023-05-07T00:14:04.161Z,100.00
2023-05-07T00:16:30.800Z,100.00
2023-05-07T00:18:57.818Z,100.00
2023-05-07T00:21:27.446Z,100.00
2023-05-07T00:23:55.047Z,100.00
2023-05-07T00:26:22.043Z,100.00
2023-05-07T00:28:50.660Z,100.00
2023-05-07T00:31:17.335Z,100.00
2023-05-07T00:33:44.032Z,100.00
2023-05-07T00:36:10.734Z,100.00
2023-05-07T00:38:37.378Z,100.00
2023-05-07T00:41:03.975Z,100.00
2023-05-07T00:43:30.735Z,100.00
2023-05-07T00:45:57.682Z,100.00
2023-05-07T00:48:25.480Z,100.00
2023-05-07T00:50:52.534Z,100.00
2023-05-07T00:53:19.229Z,100.00
2023-05-07T00:55:46.052Z,100.00
2023-05-07T00:58:13.027Z,100.00
2023-05-07T01:00:39.597Z,100.00
2023-05-07T01:03:06.716Z,100.00
2023-05-07T01:05:34.310Z,100.00
2023-05-07T01:08:02.123Z,100.00
2023-05-07T01:10:31.455Z,100.00
2023-05-07T01:12:59.973Z,100.00
2023-05-07T01:15:26.832Z,100.00
2023-05-07T01:17:54.241Z,100.00
2023-05-07T01:20:29.285Z,100.00
2023-05-07T01:22:58.335Z,100.00
2023-05-07T01:25:25.672Z,100.00
2023-05-07T01:27:56.604Z,100.00
2023-05-07T01:30:28.472Z,100.00
2023-05-07T01:33:05.265Z,100.00
2023-05-07T01:35:38.610Z,100.00
2023-05-07T01:38:07.190Z,100.00
2023-05-07T01:40:35.462Z,100.00
2023-05-07T01:43:03.950Z,100.00
2023-05-07T01:45:32.766Z,100.00
2023-05-07T01:48:00.504Z,100.00
2023-05-07T01:50:28.189Z,100.00
2023-05-07T01:52:55.194Z,100.00
2023-05-07T01:55:21.863Z,100.00
2023-05-07T01:57:48.631Z,100.00
2023-05-07T02:00:15.564Z,100.00
2023-05-07T02:02:42.435Z,100.00
2023-05-07T02:05:18.562Z,100.00
2023-05-07T02:07:48.608Z,100.00
2023-05-07T02:10:16.760Z,100.00
2023-05-07T02:12:43.735Z,100.00
2023-05-07T02:15:11.291Z,100.00
2023-05-07T02:17:59.506Z,100.00
2023-05-07T02:20:26.325Z,100.00
2023-05-07T02:22:52.884Z,100.00
2023-05-07T02:25:19.984Z,100.00
2023-05-07T02:27:46.623Z,100.00
2023-05-07T02:30:15.048Z,100.00
2023-05-07T02:32:41.981Z,100.00
2023-05-07T02:35:09.262Z,100.00
2023-05-07T02:37:36.090Z,100.00
2023-05-07T02:40:04.461Z,100.00
2023-05-07T02:42:31.838Z,100.00
2023-05-07T02:44:58.502Z,100.00
2023-05-07T02:47:28.004Z,100.00
2023-05-07T02:49:56.012Z,100.00
2023-05-07T02:52:23.168Z,100.00
2023-05-07T02:54:49.989Z,100.00
2023-05-07T02:57:16.649Z,100.00
2023-05-07T02:59:43.877Z,100.00
2023-05-07T03:02:11.452Z,100.00
2023-05-07T03:04:38.207Z,100.00
2023-05-07T03:07:04.843Z,100.00
2023-05-07T03:09:31.452Z,100.00
2023-05-07T03:11:58.652Z,100.00
2023-05-07T03:14:25.320Z,100.00
2023-05-07T03:16:51.954Z,100.00
2023-05-07T03:19:18.637Z,100.00
2023-05-07T03:21:45.260Z,100.00
2023-05-07T03:24:11.806Z,100.00
2023-05-07T03:26:38.359Z,100.00
2023-05-07T03:29:05.371Z,100.00
2023-05-07T03:31:32.099Z,100.00
2023-05-07T03:34:01.484Z,100.00
2023-05-07T03:36:28.456Z,100.00
2023-05-07T03:38:56.435Z,100.00
2023-05-07T03:41:27.093Z,100.00
2023-05-07T03:43:54.182Z,100.00
2023-05-07T03:46:20.984Z,100.00
2023-05-07T03:48:47.911Z,100.00
2023-05-07T03:51:15.559Z,100.00
2023-05-07T03:53:42.698Z,100.00
2023-05-07T03:56:09.666Z,100.00
2023-05-07T03:58:39.259Z,100.00
2023-05-07T04:01:09.040Z,100.00
2023-05-07T04:03:36.196Z,100.00
2023-05-07T04:06:02.920Z,100.00
2023-05-07T04:08:31.660Z,100.00
2023-05-07T04:10:59.413Z,100.00
2023-05-07T04:13:30.921Z,100.00
2023-05-07T04:15:58.625Z,100.00
2023-05-07T04:18:26.752Z,100.00
2023-05-07T04:20:53.809Z,100.00
2023-05-07T04:23:22.022Z,100.00
2023-05-07T04:25:49.179Z,100.00
2023-05-07T04:28:24.627Z,100.00
2023-05-07T04:30:52.369Z,100.00
2023-05-07T04:33:20.341Z,100.00
2023-05-07T04:35:48.291Z,100.00
2023-05-07T04:38:15.777Z,100.00
2023-05-07T04:40:43.423Z,100.00
2023-05-07T04:43:14.248Z,100.00
2023-05-07T04:45:46.792Z,100.00
2023-05-07T04:48:15.591Z,100.00
2023-05-07T04:50:42.424Z,100.00
2023-05-07T04:53:09.534Z,100.00
2023-05-07T04:55:36.310Z,100.00
2023-05-07T04:58:04.180Z,100.00
2023-05-07T05:00:34.234Z,100.00
2023-05-07T05:03:03.821Z,100.00
2023-05-07T05:05:30.615Z,100.00
2023-05-07T05:07:57.929Z,100.00
2023-05-07T05:10:26.123Z,100.00
2023-05-07T05:12:52.832Z,100.00
2023-05-07T05:15:21.069Z,100.00
2023-05-07T05:17:47.710Z,100.00
2023-05-07T05:20:15.934Z,100.00
2023-05-07T05:22:43.309Z,100.00
2023-05-07T05:25:10.935Z,100.00
2023-05-07T05:27:37.951Z,100.00
2023-05-07T05:30:06.744Z,100.00
2023-05-07T05:32:34.724Z,100.00
2023-05-07T05:35:01.963Z,100.00
2023-05-07T05:37:31.160Z,100.00
2023-05-07T05:39:58.524Z,100.00
2023-05-07T05:42:27.068Z,100.00
2023-05-07T05:44:55.124Z,100.00
2023-05-07T05:47:23.680Z,100.00
2023-05-07T05:49:51.943Z,100.00
2023-05-07T05:52:18.556Z,100.00
2023-05-07T05:54:46.376Z,100.00
2023-05-07T05:57:13.415Z,100.00
2023-05-07T05:59:40.186Z,100.00
2023-05-07T06:02:07.638Z,100.00
2023-05-07T06:04:34.525Z,100.00
2023-05-07T06:07:01.255Z,100.00
2023-05-07T06:09:28.105Z,100.00
2023-05-07T06:11:55.138Z,100.00
2023-05-07T06:14:22.176Z,100.00
2023-05-07T06:16:49.176Z,100.00
2023-05-07T06:19:16.202Z,100.00
2023-05-07T06:21:42.958Z,100.00
2023-05-07T06:24:09.742Z,100.00
2023-05-07T06:26:38.207Z,100.00
2023-05-07T06:29:07.382Z,100.00
2023-05-07T06:31:34.623Z,100.00
2023-05-07T06:34:04.663Z,100.00
2023-05-07T06:36:35.467Z,100.00
2023-05-07T06:39:09.540Z,100.00
2023-05-07T06:41:36.909Z,100.00
2023-05-07T06:44:09.914Z,100.00
2023-05-07T06:46:44.816Z,100.00
2023-05-07T06:49:13.651Z,100.00
2023-05-07T06:51:40.704Z,100.00
2023-05-07T06:54:07.473Z,100.00
2023-05-07T06:56:36.927Z,100.00
2023-05-07T06:59:05.138Z,100.00
2023-05-07T07:01:36.155Z,100.00
2023-05-07T07:04:04.180Z,100.00
2023-05-07T07:06:32.939Z,100.00
2023-05-07T07:09:01.593Z,100.00
2023-05-07T07:11:28.955Z,100.00
2023-05-07T07:13:56.166Z,100.00
2023-05-07T07:16:23.362Z,100.00
2023-05-07T07:18:51.953Z,100.00
2023-05-07T07:21:20.211Z,100.00
2023-05-07T07:23:47.194Z,100.00
2023-05-07T07:26:14.354Z,100.00
2023-05-07T07:28:47.454Z,100.00
2023-05-07T07:31:18.084Z,100.00
2023-05-07T07:33:45.317Z,100.00
2023-05-07T07:36:12.222Z,100.00
2023-05-07T07:38:39.205Z,100.00
2023-05-07T07:41:06.258Z,100.00
2023-05-07T07:43:32.944Z,100.00
2023-05-07T07:46:00.103Z,100.00
2023-05-07T07:48:27.984Z,100.00
2023-05-07T07:50:55.070Z,100.00
2023-05-07T07:53:22.267Z,100.00
2023-05-07T07:55:49.323Z,98.06
2023-05-07T07:58:19.121Z,100.00
2023-05-07T08:00:46.206Z,100.00
2023-05-07T08:03:13.915Z,97.80
2023-05-07T08:05:45.122Z,90.67
2023-05-07T08:08:11.850Z,92.58
2023-05-07T08:10:40.278Z,91.40
2023-05-07T08:13:13.993Z,96.86
2023-05-07T08:15:42.329Z,86.07
2023-05-07T08:18:09.087Z,80.69
2023-05-07T08:20:40.332Z,82.82
2023-05-07T08:23:09.934Z,85.32
2023-05-07T08:25:38.410Z,87.82
2023-05-07T08:28:06.303Z,80.28
2023-05-07T08:30:33.843Z,79.88
2023-05-07T08:33:01.660Z,77.40
2023-05-07T08:35:29.213Z,73.05
2023-05-07T08:37:55.941Z,77.95
2023-05-07T08:40:27.333Z,78.21
2023-05-07T08:42:58.094Z,70.04
2023-05-07T08:45:26.024Z,67.19
2023-05-07T08:47:59.270Z,68.93
2023-05-07T08:50:30.476Z,71.10
2023-05-07T08:53:00.955Z,77.22
2023-05-07T08:55:29.871Z,79.48
2023-05-07T08:57:57.033Z,74.04
2023-05-07T09:00:24.083Z,64.63
2023-05-07T09:02:54.414Z,65.59
2023-05-07T09:05:21.576Z,62.02
2023-05-07T09:07:48.597Z,56.73
2023-05-07T09:10:15.764Z,64.30
2023-05-07T09:12:43.711Z,62.22
2023-05-07T09:15:13.323Z,59.22
2023-05-07T09:17:42.203Z,54.74
2023-05-07T09:20:10.845Z,55.12
2023-05-07T09:22:39.215Z,60.96
2023-05-07T09:25:10.713Z,56.80
2023-05-07T09:27:38.907Z,54.25
2023-05-07T09:30:08.020Z,53.22
2023-05-07T09:32:41.242Z,55.77
2023-05-07T09:37:48.172Z,62.42
2023-05-07T09:40:23.564Z,63.61
2023-05-07T09:42:51.579Z,54.52
2023-05-07T09:45:29.702Z,57.06
2023-05-07T09:47:59.472Z,61.42
2023-05-07T09:50:33.656Z,58.55
2023-05-07T09:53:01.722Z,68.82
2023-05-07T09:55:28.944Z,60.92
2023-05-07T09:57:56.803Z,64.03
2023-05-07T10:00:25.466Z,60.07
2023-05-07T10:03:02.523Z,62.18
2023-05-07T10:05:38.493Z,58.52
2023-05-07T10:08:05.937Z,57.79
2023-05-07T10:10:35.963Z,55.56
2023-05-07T10:13:06.876Z,52.84
2023-05-07T10:15:35.663Z,46.51
2023-05-07T10:18:05.437Z,49.79
2023-05-07T10:20:34.204Z,52.41
2023-05-07T10:23:05.066Z,45.71
2023-05-07T10:25:37.278Z,47.85
2023-05-07T10:28:12.085Z,53.53
2023-05-07T10:31:05.779Z,49.64
2023-05-07T10:33:41.389Z,45.61
2023-05-07T10:36:08.996Z,49.85
2023-05-07T10:38:36.312Z,53.94
2023-05-07T10:41:05.688Z,58.01
2023-05-07T10:43:45.526Z,55.94
2023-05-07T10:46:23.210Z,51.98
2023-05-07T10:49:07.162Z,45.70
2023-05-07T10:52:28.974Z,45.77
2023-05-07T10:55:18.631Z,43.00
2023-05-07T10:57:52.309Z,46.36
2023-05-07T11:03:02.626Z,52.14
2023-05-07T11:05:38.255Z,47.75
2023-05-07T11:08:16.181Z,45.30
2023-05-07T11:10:53.737Z,47.59
2023-05-07T11:13:50.325Z,45.84
2023-05-07T11:16:37.897Z,44.34
2023-05-07T11:19:54.348Z,47.67
2023-05-07T11:22:40.654Z,42.09
2023-05-07T11:25:39.691Z,43.55
2023-05-07T11:28:16.470Z,44.55
2023-05-07T11:30:49.349Z,44.67
2023-05-07T11:33:19.736Z,43.07
2023-05-07T11:35:48.320Z,42.52
2023-05-07T11:38:19.313Z,41.61
2023-05-07T11:40:54.051Z,39.85
2023-05-07T11:43:20.775Z,40.22
2023-05-07T11:45:48.270Z,39.81
2023-05-07T11:48:16.166Z,39.74
2023-05-07T11:51:00.772Z,43.37
2023-05-07T11:53:28.958Z,46.57
2023-05-07T11:55:58.580Z,42.49
2023-05-07T11:58:29.057Z,46.69
2023-05-07T12:00:56.037Z,48.07
2023-05-07T12:03:22.910Z,51.17
2023-05-07T12:05:49.959Z,45.12
2023-05-07T12:08:17.750Z,43.32
2023-05-07T12:10:51.362Z,42.89
2023-05-07T12:13:23.222Z,40.61
2023-05-07T12:15:57.088Z,41.47
2023-05-07T12:18:24.575Z,43.23
2023-05-07T12:20:51.708Z,42.46
2023-05-07T12:23:19.273Z,39.39
2023-05-07T12:25:48.810Z,43.27
2023-05-07T12:28:17.223Z,40.47
2023-05-07T12:30:45.521Z,41.34
2023-05-07T12:33:12.542Z,39.31
2023-05-07T12:35:41.732Z,40.85
2023-05-07T12:38:13.303Z,39.98
2023-05-07T12:40:46.133Z,41.06
2023-05-07T12:43:26.782Z,39.24
2023-05-07T12:45:55.652Z,42.10
2023-05-07T12:48:23.308Z,44.62
2023-05-07T12:50:51.749Z,41.33
2023-05-07T12:53:22.770Z,42.11
2023-05-07T12:55:51.398Z,41.28
2023-05-07T12:58:22.763Z,38.74
2023-05-07T13:00:51.059Z,40.13
2023-05-07T13:03:32.785Z,40.52
2023-05-07T13:06:11.034Z,39.08
2023-05-07T13:08:41.694Z,37.86
2023-05-07T13:11:09.551Z,41.39
2023-05-07T13:13:38.434Z,45.34
2023-05-07T13:16:07.285Z,45.01
2023-05-07T13:18:34.873Z,40.16
2023-05-07T13:21:02.214Z,40.13
2023-05-07T13:23:29.385Z,40.68
2023-05-07T13:25:56.863Z,38.95
2023-05-07T13:28:27.244Z,41.26
2023-05-07T13:30:55.783Z,47.38
2023-05-07T13:33:22.572Z,44.43
2023-05-07T13:35:49.353Z,46.86
2023-05-07T13:38:16.991Z,47.67
2023-05-07T13:40:43.874Z,52.85
2023-05-07T13:43:11.569Z,47.52
2023-05-07T13:45:39.006Z,46.13
2023-05-07T13:48:05.852Z,49.82
2023-05-07T13:50:32.570Z,47.68
2023-05-07T13:52:59.135Z,48.12
2023-05-07T13:55:26.234Z,43.77
2023-05-07T13:58:07.093Z,39.43
2023-05-07T14:00:33.936Z,36.79
2023-05-07T14:03:00.807Z,38.99
2023-05-07T14:05:30.617Z,38.87
2023-05-07T14:07:58.772Z,38.40
2023-05-07T14:10:26.044Z,39.49
2023-05-07T14:12:53.710Z,41.09
2023-05-07T14:15:20.376Z,42.26
2023-05-07T14:17:47.866Z,44.45
2023-05-07T14:20:15.100Z,51.49
2023-05-07T14:22:42.067Z,53.02
2023-05-07T14:25:10.578Z,51.20
2023-05-07T14:27:37.744Z,57.16
2023-05-07T14:30:04.955Z,58.77
2023-05-07T14:32:31.695Z,58.64
2023-05-07T14:34:58.404Z,61.46
2023-05-07T14:37:25.283Z,62.58
2023-05-07T14:39:52.056Z,60.69
2023-05-07T14:42:19.002Z,62.54
2023-05-07T14:44:49.290Z,61.20
2023-05-07T14:47:18.307Z,59.41
2023-05-07T14:49:46.451Z,69.34
2023-05-07T14:52:13.071Z,68.17
2023-05-07T14:54:39.752Z,67.91
2023-05-07T14:57:08.005Z,68.46
2023-05-07T14:59:35.052Z,67.15
2023-05-07T15:02:04.536Z,71.23
2023-05-07T15:04:32.870Z,75.48
2023-05-07T15:06:59.439Z,76.46
2023-05-07T15:09:26.576Z,73.93
2023-05-07T15:11:53.471Z,75.34
2023-05-07T15:14:20.823Z,76.88
2023-05-07T15:16:47.733Z,78.35
2023-05-07T15:19:15.975Z,78.91
2023-05-07T15:21:42.676Z,76.69
2023-05-07T15:24:10.445Z,73.40
2023-05-07T15:26:37.284Z,69.52
2023-05-07T15:29:09.053Z,74.05
2023-05-07T15:31:35.983Z,75.03
2023-05-07T15:34:02.664Z,76.29
2023-05-07T15:36:29.638Z,70.83
2023-05-07T15:38:56.212Z,73.76
2023-05-07T15:41:23.025Z,65.57
2023-05-07T15:43:52.365Z,59.10
2023-05-07T15:46:20.440Z,58.80
2023-05-07T15:48:47.385Z,59.43
2023-05-07T15:51:14.108Z,55.54
2023-05-07T15:53:41.162Z,53.98
2023-05-07T15:56:08.383Z,51.97
2023-05-07T15:58:36.453Z,49.88
2023-05-07T16:01:04.117Z,49.35
2023-05-07T16:03:31.894Z,49.28
2023-05-07T16:06:00.739Z,51.73
2023-05-07T16:08:28.007Z,52.87
2023-05-07T16:10:55.399Z,52.37
2023-05-07T16:13:24.680Z,50.28
2023-05-07T16:15:57.430Z,49.42
2023-05-07T16:18:24.012Z,49.45
2023-05-07T16:20:51.167Z,50.73
2023-05-07T16:23:18.113Z,54.42
2023-05-07T16:25:44.709Z,56.10
2023-05-07T16:28:11.508Z,57.66
2023-05-07T16:30:38.179Z,59.27
2023-05-07T16:33:04.761Z,60.86
2023-05-07T16:35:31.639Z,63.14
2023-05-07T16:37:58.350Z,65.06
2023-05-07T16:40:25.579Z,67.01
2023-05-07T16:42:54.786Z,70.82
2023-05-07T16:45:23.237Z,71.71
2023-05-07T16:47:49.989Z,69.77
2023-05-07T16:50:16.667Z,71.64
2023-05-07T16:52:43.221Z,69.77
2023-05-07T16:55:10.048Z,76.23
2023-05-07T16:57:36.763Z,79.06
2023-05-07T17:00:07.229Z,78.44
2023-05-07T17:02:35.604Z,82.39
2023-05-07T17:05:02.379Z,84.89
2023-05-07T17:07:28.965Z,84.97
2023-05-07T17:09:55.751Z,88.67
2023-05-07T17:12:22.937Z,91.48
2023-05-07T17:14:49.743Z,86.29
2023-05-07T17:17:16.351Z,87.71
2023-05-07T17:19:44.026Z,88.39
2023-05-07T17:22:10.588Z,90.42
2023-05-07T17:24:37.387Z,93.27
2023-05-07T17:27:04.036Z,89.67
2023-05-07T17:29:30.953Z,93.27
2023-05-07T17:31:57.557Z,92.02
2023-05-07T17:34:24.302Z,92.06
2023-05-07T17:36:51.031Z,91.91
2023-05-07T17:39:17.555Z,95.16
2023-05-07T17:41:44.121Z,95.94
2023-05-07T17:44:11.050Z,97.82
2023-05-07T17:46:37.636Z,99.17
2023-05-07T17:49:04.238Z,97.19
2023-05-07T17:51:36.243Z,99.32
2023-05-07T17:54:12.742Z,98.16
2023-05-07T17:56:40.337Z,96.21
2023-05-07T17:59:06.973Z,97.87
2023-05-07T18:01:34.435Z,100.00
2023-05-07T18:04:02.792Z,98.34
2023-05-07T18:06:29.733Z,100.00
2023-05-07T18:08:56.879Z,100.00
2023-05-07T18:11:24.378Z,100.00
2023-05-07T18:13:51.202Z,100.00
2023-05-07T18:16:19.284Z,100.00
2023-05-07T18:18:46.947Z,100.00
2023-05-07T18:21:18.617Z,100.00
2023-05-07T18:23:46.047Z,100.00
2023-05-07T18:26:12.732Z,100.00
2023-05-07T18:28:39.501Z,100.00
2023-05-07T18:31:06.107Z,100.00
2023-05-07T18:33:32.823Z,100.00
2023-05-07T18:35:59.657Z,100.00
2023-05-07T18:38:26.182Z,100.00
2023-05-07T18:40:52.885Z,100.00
2023-05-07T18:43:19.536Z,100.00
2023-05-07T18:45:49.508Z,100.00
2023-05-07T18:48:16.901Z,100.00
2023-05-07T18:50:43.925Z,100.00
2023-05-07T18:53:11.184Z,100.00
2023-05-07T18:55:37.928Z,100.00
2023-05-07T18:58:04.655Z,100.00
2023-05-07T19:00:31.319Z,100.00
2023-05-07T19:02:57.923Z,100.00
2023-05-07T19:05:24.852Z,100.00
2023-05-07T19:07:51.542Z,100.00
2023-05-07T19:10:18.378Z,100.00
2023-05-07T19:12:45.056Z,100.00
2023-05-07T19:15:11.733Z,100.00
2023-05-07T19:17:38.539Z,100.00
2023-05-07T19:22:37.139Z,100.00
2023-05-07T19:25:04.220Z,100.00
2023-05-07T19:27:30.730Z,100.00
2023-05-07T19:29:57.731Z,100.00
2023-05-07T19:32:24.364Z,100.00
2023-05-07T19:34:51.121Z,100.00
2023-05-07T19:37:18.314Z,100.00
2023-05-07T19:39:44.980Z,100.00
2023-05-07T19:42:11.705Z,100.00
2023-05-07T19:44:38.376Z,100.00
2023-05-07T19:47:05.922Z,100.00
2023-05-07T19:49:32.712Z,100.00
2023-05-07T19:51:59.363Z,100.00
2023-05-07T19:54:26.238Z,100.00
2023-05-07T19:56:52.893Z,100.00
2023-05-07T19:59:19.461Z,100.00
2023-05-07T20:01:46.090Z,100.00
2023-05-07T20:04:12.930Z,100.00
2023-05-07T20:06:39.496Z,100.00
2023-05-07T20:09:07.491Z,100.00
2023-05-07T20:11:34.070Z,100.00
2023-05-07T20:14:00.766Z,100.00
2023-05-07T20:16:27.411Z,100.00
2023-05-07T20:18:53.951Z,100.00
2023-05-07T20:21:20.751Z,100.00
2023-05-07T20:23:47.315Z,100.00
2023-05-07T20:26:13.890Z,100.00
2023-05-07T20:28:40.655Z,100.00
2023-05-07T20:31:07.672Z,100.00
2023-05-07T20:33:34.381Z,100.00
2023-05-07T20:36:00.920Z,100.00
2023-05-07T20:38:27.658Z,100.00
2023-05-07T20:40:54.240Z,100.00
2023-05-07T20:43:21.612Z,100.00
2023-05-07T20:45:48.416Z,100.00
2023-05-07T20:48:15.100Z,100.00
2023-05-07T20:50:41.813Z,100.00
2023-05-07T20:53:08.537Z,100.00
2023-05-07T20:55:35.108Z,100.00
2023-05-07T20:58:01.630Z,100.00
2023-05-07T21:00:28.381Z,100.00
2023-05-07T21:02:54.945Z,100.00
2023-05-07T21:05:21.771Z,100.00
2023-05-07T21:07:48.286Z,100.00
2023-05-07T21:10:15.132Z,100.00
2023-05-07T21:12:42.036Z,100.00
2023-05-07T21:15:09.419Z,100.00
2023-05-07T21:17:36.954Z,100.00
2023-05-07T21:20:04.111Z,100.00
2023-05-07T21:22:31.150Z,100.00
2023-05-07T21:24:57.731Z,100.00
2023-05-07T21:27:24.428Z,100.00
2023-05-07T21:29:51.134Z,100.00
2023-05-07T21:32:17.979Z,100.00
2023-05-07T21:34:44.589Z,100.00
2023-05-07T21:37:11.285Z,100.00
2023-05-07T21:39:37.838Z,100.00
2023-05-07T21:42:04.477Z,100.00
2023-05-07T21:44:31.658Z,100.00
2023-05-07T21:46:58.492Z,100.00
2023-05-07T21:49:25.187Z,100.00
2023-05-07T21:51:51.775Z,100.00
2023-05-07T21:54:18.347Z,100.00
2023-05-07T21:56:45.544Z,100.00
2023-05-07T21:59:12.236Z,100.00
2023-05-07T22:01:38.899Z,100.00
2023-05-07T22:04:05.713Z,100.00
2023-05-07T22:06:32.349Z,100.00
2023-05-07T22:08:58.926Z,100.00
2023-05-07T22:11:26.281Z,100.00
2023-05-07T22:13:52.847Z,100.00
2023-05-07T22:16:19.494Z,100.00
2023-05-07T22:18:46.168Z,100.00
2023-05-07T22:21:12.831Z,100.00
2023-05-07T22:23:39.494Z,100.00
2023-05-07T22:26:13.591Z,100.00
2023-05-07T22:28:40.606Z,100.00
2023-05-07T22:31:07.523Z,100.00
2023-05-07T22:33:34.226Z,100.00
2023-05-07T22:36:01.168Z,100.00
2023-05-07T22:38:27.675Z,100.00
2023-05-07T22:40:54.520Z,100.00
2023-05-07T22:43:21.145Z,100.00
2023-05-07T22:45:47.752Z,100.00
2023-05-07T22:48:14.306Z,100.00
2023-05-07T22:50:41.272Z,100.00
2023-05-07T22:53:07.860Z,100.00
2023-05-07T22:55:34.896Z,100.00
2023-05-07T22:58:01.555Z,100.00
2023-05-07T23:00:28.235Z,100.00
2023-05-07T23:02:54.931Z,100.00
2023-05-07T23:05:22.764Z,100.00
2023-05-07T23:07:49.309Z,100.00
2023-05-07T23:10:16.031Z,100.00
2023-05-07T23:12:43.864Z,100.00
2023-05-07T23:15:11.120Z,100.00
2023-05-07T23:17:37.874Z,100.00
2023-05-07T23:20:04.798Z,100.00
2023-05-07T23:22:31.663Z,100.00
2023-05-07T23:24:58.364Z,100.00
2023-05-07T23:27:25.039Z,100.00
2023-05-07T23:29:51.734Z,100.00
2023-05-07T23:32:18.394Z,100.00
2023-05-07T23:34:49.952Z,100.00
2023-05-07T23:37:16.442Z,100.00
2023-05-07T23:39:42.950Z,100.00
2023-05-07T23:42:10.312Z,100.00
2023-05-07T23:44:36.954Z,100.00
2023-05-07T23:47:03.597Z,100.00
2023-05-07T23:49:30.229Z,100.00
2023-05-07T23:51:56.768Z,100.00
2023-05-07T23:54:23.398Z,100.00
2023-05-07T23:56:50.122Z,100.00
2023-05-07T23:59:16.659Z,100.00
